createdAt,value
2019-04-27T00:04:11.678Z,18.80
2019-04-27T00:09:25.801Z,21.82
2019-04-27T00:14:28.652Z,24.93
2019-04-27T00:19:53.710Z,26.25
2019-04-27T00:24:56.360Z,25.83
2019-04-27T00:29:59.228Z,23.93
2019-04-27T00:35:03.740Z,18.70
2019-04-27T00:40:17.671Z,20.07
2019-04-27T00:45:20.798Z,19.90
2019-04-27T00:50:23.727Z,20.60
2019-04-27T00:55:26.660Z,16.12
2019-04-27T01:00:44.389Z,19.30
2019-04-27T01:05:47.251Z,17.97
2019-04-27T01:10:51.245Z,14.27
2019-04-27T01:15:54.186Z,18.93
2019-04-27T01:20:56.955Z,20.87
2019-04-27T01:26:12.132Z,15.53
2019-04-27T01:31:14.934Z,32.30
2019-04-27T01:36:19.034Z,17.10
2019-04-27T01:41:21.892Z,20.07
2019-04-27T01:46:24.687Z,15.30
2019-04-27T01:51:29.320Z,16.90
2019-04-27T01:56:32.051Z,18.47
2019-04-27T02:02:00.118Z,21.13
2019-04-27T02:07:05.209Z,14.43
2019-04-27T02:12:09.340Z,15.43
2019-04-27T02:17:12.267Z,16.27
2019-04-27T02:22:18.710Z,17.87
2019-04-27T02:27:23.396Z,15.57
2019-04-27T02:32:43.413Z,11.73
2019-04-27T02:37:46.830Z,17.37
2019-04-27T02:42:51.267Z,10.90
2019-04-27T02:47:54.444Z,21.93
2019-04-27T02:52:57.254Z,13.43
2019-04-27T02:58:00.029Z,17.13
2019-04-27T03:03:05.736Z,12.63
2019-04-27T03:08:11.133Z,15.13
2019-04-27T03:13:30.443Z,18.53
2019-04-27T03:18:40.403Z,12.67
2019-04-27T03:23:43.372Z,13.43
2019-04-27T03:28:46.231Z,16.43
2019-04-27T03:33:54.912Z,14.00
2019-04-27T03:38:53.683Z,9.87
2019-04-27T03:43:59.365Z,16.67
2019-04-27T03:49:02.215Z,15.20
2019-04-27T03:54:36.723Z,14.57
2019-04-27T03:59:59.879Z,13.73
2019-04-27T04:05:03.677Z,13.27
2019-04-27T04:10:10.352Z,16.00
2019-04-27T04:15:20.046Z,19.00
2019-04-27T04:20:23.020Z,15.97
2019-04-27T04:25:25.801Z,18.00
2019-04-27T04:30:30.311Z,13.23
2019-04-27T04:35:33.537Z,16.45
2019-04-27T04:40:50.321Z,19.87
2019-04-27T04:46:22.976Z,14.47
2019-04-27T04:51:26.152Z,13.38
2019-04-27T04:56:29.295Z,18.60
2019-04-27T05:01:32.316Z,12.80
2019-04-27T05:06:35.309Z,10.85
2019-04-27T05:11:39.627Z,14.45
2019-04-27T05:16:42.486Z,16.65
2019-04-27T05:21:45.287Z,12.85
2019-04-27T05:26:48.716Z,11.30
2019-04-27T05:31:51.756Z,15.45
2019-04-27T05:36:54.654Z,14.23
2019-04-27T05:41:57.425Z,12.20
2019-04-27T05:47:23.385Z,14.10
2019-04-27T05:52:30.056Z,13.93
2019-04-27T05:57:33.082Z,13.62
2019-04-27T06:02:43.418Z,10.40
2019-04-27T06:07:48.944Z,16.80
2019-04-27T06:12:51.948Z,19.50
2019-04-27T06:17:54.782Z,20.77
2019-04-27T06:22:58.878Z,15.00
2019-04-27T06:28:01.752Z,19.30
2019-04-27T06:33:04.755Z,12.82
2019-04-27T06:38:07.532Z,16.95
2019-04-27T06:43:10.429Z,17.25
2019-04-27T06:48:13.219Z,16.05
2019-04-27T06:53:16.145Z,14.90
2019-04-27T06:58:20.009Z,19.70
2019-04-27T07:03:23.240Z,20.65
2019-04-27T07:08:26.218Z,12.35
2019-04-27T07:13:29.253Z,17.15
2019-04-27T07:18:32.318Z,15.58
2019-04-27T07:23:38.902Z,13.10
2019-04-27T07:28:41.842Z,12.40
2019-04-27T07:33:44.611Z,15.95
2019-04-27T07:38:48.566Z,15.23
2019-04-27T07:44:00.795Z,20.65
2019-04-27T07:49:03.634Z,12.33
2019-04-27T07:54:06.797Z,15.98
2019-04-27T07:59:09.543Z,18.15
2019-04-27T08:04:12.419Z,13.32
2019-04-27T08:09:15.168Z,17.42
2019-04-27T08:14:18.585Z,16.37
2019-04-27T08:19:21.342Z,18.80
2019-04-27T08:24:24.278Z,14.07
2019-04-27T08:29:46.546Z,24.18
2019-04-27T08:34:49.687Z,14.53
2019-04-27T08:39:52.492Z,19.57
2019-04-27T08:44:55.229Z,20.45
2019-04-27T08:49:59.142Z,22.85
2019-04-27T08:55:02.328Z,18.42
2019-04-27T09:00:06.796Z,21.15
2019-04-27T09:05:11.675Z,18.67
2019-04-27T09:10:41.311Z,22.10
2019-04-27T09:15:52.219Z,19.98
2019-04-27T09:20:58.821Z,23.75
2019-04-27T09:26:01.837Z,23.45
2019-04-27T09:31:05.324Z,20.57
2019-04-27T09:36:07.980Z,28.60
2019-04-27T09:41:10.758Z,35.40
2019-04-27T09:46:13.580Z,31.30
2019-04-27T09:51:16.403Z,43.30
2019-04-27T09:56:19.189Z,41.30
2019-04-27T10:01:22.066Z,34.93
2019-04-27T10:06:28.010Z,36.73
2019-04-27T10:11:29.517Z,25.27
2019-04-27T10:16:32.444Z,23.97
2019-04-27T10:21:36.539Z,24.17
2019-04-27T10:26:43.861Z,31.47
2019-04-27T10:31:48.291Z,30.77
2019-04-27T10:36:51.106Z,36.40
2019-04-27T10:41:53.999Z,32.70
2019-04-27T10:46:56.918Z,29.60
2019-04-27T10:52:07.828Z,26.93
2019-04-27T10:57:10.731Z,24.10
2019-04-27T11:02:13.638Z,25.13
2019-04-27T11:07:18.673Z,24.13
2019-04-27T11:12:21.650Z,16.63
2019-04-27T11:17:26.581Z,13.77
2019-04-27T11:22:29.570Z,18.37
2019-04-27T11:27:32.337Z,30.17
2019-04-27T11:32:35.301Z,21.37
2019-04-27T11:37:39.324Z,8.73
2019-04-27T11:42:42.208Z,17.17
2019-04-27T11:47:45.162Z,17.50
2019-04-27T11:52:48.112Z,23.73
2019-04-27T11:57:50.845Z,15.90
2019-04-27T12:02:53.579Z,28.30
2019-04-27T12:07:56.464Z,17.00
2019-04-27T12:12:59.245Z,22.90
2019-04-27T12:18:02.227Z,19.47
2019-04-27T12:23:08.593Z,18.63
2019-04-27T12:28:23.087Z,40.00
2019-04-27T12:33:27.630Z,22.20
2019-04-27T12:38:30.599Z,15.97
2019-04-27T12:43:33.494Z,14.77
2019-04-27T12:48:37.504Z,15.30
2019-04-27T12:53:50.729Z,12.70
2019-04-27T12:59:17.070Z,7.43
2019-04-27T13:04:19.936Z,12.17
2019-04-27T13:09:22.703Z,5.67
2019-04-27T13:14:26.340Z,14.53
2019-04-27T13:19:31.677Z,15.00
2019-04-27T13:24:47.103Z,12.47
2019-04-27T13:29:52.224Z,12.20
2019-04-27T13:34:57.279Z,5.67
2019-04-27T13:40:07.102Z,8.90
2019-04-27T13:45:37.707Z,9.17
2019-04-27T13:50:45.672Z,16.60
2019-04-27T13:55:48.669Z,7.90
2019-04-27T14:00:51.556Z,14.60
2019-04-27T14:05:54.653Z,9.67
2019-04-27T14:10:58.806Z,7.37
2019-04-27T14:16:01.860Z,12.07
2019-04-27T14:21:04.632Z,12.43
2019-04-27T14:26:08.823Z,10.90
2019-04-27T14:31:11.679Z,6.97
2019-04-27T14:36:14.727Z,5.97
2019-04-27T14:41:19.153Z,5.93
2019-04-27T14:46:22.894Z,10.43
2019-04-27T14:51:25.758Z,3.77
2019-04-27T14:56:28.509Z,11.53
2019-04-27T15:01:31.144Z,5.20
2019-04-27T15:06:37.435Z,3.87
2019-04-27T15:11:41.597Z,5.87
2019-04-27T15:16:49.698Z,4.83
2019-04-27T15:21:58.628Z,9.33
2019-04-27T15:27:03.447Z,4.53
2019-04-27T15:32:12.405Z,5.67
2019-04-27T15:37:39.253Z,6.87
2019-04-27T15:42:55.325Z,2.10
2019-04-27T15:47:58.457Z,4.90
2019-04-27T15:53:09.894Z,5.73
2019-04-27T15:58:12.339Z,10.00
2019-04-27T16:03:22.632Z,5.73
2019-04-27T16:08:28.833Z,6.53
2019-04-27T16:13:33.201Z,4.83
2019-04-27T16:18:36.066Z,6.07
2019-04-27T16:23:42.787Z,6.80
2019-04-27T16:28:49.559Z,5.23
2019-04-27T16:33:49.656Z,6.23
2019-04-27T16:38:59.523Z,5.83
2019-04-27T16:44:06.740Z,6.67
2019-04-27T16:49:13.807Z,4.97
2019-04-27T16:54:17.691Z,5.67
2019-04-27T16:59:38.764Z,5.60
2019-04-27T17:04:21.014Z,10.67
2019-04-27T17:09:23.760Z,5.00
2019-04-27T17:14:55.058Z,11.60
2019-04-27T17:20:02.204Z,5.67
2019-04-27T17:25:05.476Z,9.17
2019-04-27T17:30:09.049Z,17.03
2019-04-27T17:35:14.925Z,16.37
2019-04-27T17:40:16.432Z,8.27
2019-04-27T17:45:21.615Z,64.27
2019-04-27T17:50:25.224Z,157.50
2019-04-27T17:55:28.551Z,73.97
2019-04-27T18:00:32.918Z,7.80
2019-04-27T18:05:35.733Z,20.53
2019-04-27T18:10:38.450Z,3.03
2019-04-27T18:15:41.216Z,3.47
2019-04-27T18:20:44.415Z,3.03
2019-04-27T18:25:53.489Z,7.87
2019-04-27T18:31:04.431Z,5.43
2019-04-27T18:36:13.668Z,3.40
2019-04-27T18:41:18.285Z,2.30
2019-04-27T18:46:24.467Z,7.47
2019-04-27T18:51:38.461Z,2.23
2019-04-27T18:56:41.802Z,3.30
2019-04-27T19:01:44.889Z,3.07
2019-04-27T19:06:47.864Z,4.00
2019-04-27T19:11:56.049Z,4.27
2019-04-27T19:16:56.579Z,3.93
2019-04-27T19:21:59.243Z,3.73
2019-04-27T19:27:17.915Z,7.50
2019-04-27T19:32:17.978Z,7.63
2019-04-27T19:37:20.711Z,4.57
2019-04-27T19:42:23.514Z,6.83
2019-04-27T19:47:26.220Z,6.93
2019-04-27T19:52:29.882Z,4.13
2019-04-27T19:57:38.107Z,8.73
2019-04-27T20:02:38.020Z,10.87
2019-04-27T20:07:40.854Z,16.17
2019-04-27T20:12:43.520Z,12.10
2019-04-27T20:17:46.267Z,5.83
2019-04-27T20:22:48.981Z,2.70
2019-04-27T20:27:52.058Z,167.43
2019-04-27T20:32:54.782Z,13.53
2019-04-27T20:37:57.496Z,10.23
2019-04-27T20:43:01.650Z,7.10
2019-04-27T20:48:04.721Z,7.80
2019-04-27T20:53:12.599Z,6.30
2019-04-27T20:58:15.454Z,5.53
2019-04-27T21:03:32.843Z,10.03
2019-04-27T21:08:36.794Z,3.43
2019-04-27T21:13:39.411Z,5.03
2019-04-27T21:18:42.229Z,2.70
2019-04-27T21:23:44.839Z,3.30
2019-04-27T21:28:47.601Z,4.70
2019-04-27T21:33:50.318Z,5.43
2019-04-27T21:38:53.001Z,19.33
2019-04-27T21:43:55.752Z,6.20
2019-04-27T21:48:58.579Z,12.60
2019-04-27T21:54:13.573Z,14.30
2019-04-27T21:59:16.337Z,10.30
2019-04-27T22:04:19.050Z,11.90
2019-04-27T22:09:21.777Z,62.37
2019-04-27T22:14:24.700Z,131.53
2019-04-27T22:19:27.449Z,29.17
2019-04-27T22:24:34.171Z,29.10
2019-04-27T22:29:37.041Z,88.53
2019-04-27T22:34:41.308Z,124.10
2019-04-27T22:39:52.518Z,104.20
2019-04-27T22:45:01.637Z,64.27
2019-04-27T22:50:05.921Z,53.77
2019-04-27T22:55:08.557Z,26.50
2019-04-27T23:00:31.571Z,23.77
2019-04-27T23:05:34.496Z,31.33
2019-04-27T23:10:37.129Z,40.63
2019-04-27T23:15:43.488Z,141.53
2019-04-27T23:20:46.249Z,219.40
2019-04-27T23:25:49.041Z,52.17
2019-04-27T23:31:11.259Z,56.67
2019-04-27T23:36:14.023Z,62.90
2019-04-27T23:41:16.605Z,93.17
2019-04-27T23:46:19.367Z,116.40
2019-04-27T23:51:40.784Z,114.67
2019-04-27T23:56:43.556Z,159.87
